sensor_id;sensor_type;location;lat;lon;timestamp;pressure;altitude;pressure_sealevel;temperature;humidity
57574;BME280;68988;49.000;21.242;2023-04-28T00:00:17;99084.13;;;23.30;37.38
57574;BME280;68988;49.000;21.242;2023-04-28T00:02:42;99083.06;;;23.31;37.32
57574;BME280;68988;49.000;21.242;2023-04-28T00:05:08;99078.75;;;23.30;37.36
57574;BME280;68988;49.000;21.242;2023-04-28T00:07:33;99085.75;;;23.31;37.26
57574;BME280;68988;49.000;21.242;2023-04-28T00:09:59;99082.25;;;23.31;37.24
57574;BME280;68988;49.000;21.242;2023-04-28T00:12:24;99075.03;;;23.31;37.36
57574;BME280;68988;49.000;21.242;2023-04-28T00:14:50;99077.13;;;23.29;37.57
57574;BME280;68988;49.000;21.242;2023-04-28T00:17:15;99083.88;;;23.32;37.30
57574;BME280;68988;49.000;21.242;2023-04-28T00:19:41;99080.41;;;23.31;37.43
57574;BME280;68988;49.000;21.242;2023-04-28T00:22:06;99080.41;;;23.31;37.33
57574;BME280;68988;49.000;21.242;2023-04-28T00:24:32;99083.06;;;23.31;37.13
57574;BME280;68988;49.000;21.242;2023-04-28T00:26:58;99083.06;;;23.31;37.29
57574;BME280;68988;49.000;21.242;2023-04-28T00:29:23;99071.53;;;23.31;37.31
57574;BME280;68988;49.000;21.242;2023-04-28T00:31:48;99084.91;;;23.31;37.30
57574;BME280;68988;49.000;21.242;2023-04-28T00:34:14;99088.41;;;23.31;37.24
57574;BME280;68988;49.000;21.242;2023-04-28T00:36:39;99088.41;;;23.31;37.26
57574;BME280;68988;49.000;21.242;2023-04-28T00:39:05;99086.78;;;23.30;37.15
57574;BME280;68988;49.000;21.242;2023-04-28T00:41:30;99080.66;;;23.30;37.11
57574;BME280;68988;49.000;21.242;2023-04-28T00:43:56;99088.94;;;23.28;37.21
57574;BME280;68988;49.000;21.242;2023-04-28T00:46:29;99093.28;;;23.34;37.22
57574;BME280;68988;49.000;21.242;2023-04-28T00:48:55;99086.00;;;23.30;37.28
57574;BME280;68988;49.000;21.242;2023-04-28T00:51:20;99092.16;;;23.30;37.26
57574;BME280;68988;49.000;21.242;2023-04-28T00:53:46;99098.53;;;23.29;37.20
57574;BME280;68988;49.000;21.242;2023-04-28T00:56:12;99093.19;;;23.29;37.32
57574;BME280;68988;49.000;21.242;2023-04-28T00:58:38;99095.06;;;23.29;37.08
57574;BME280;68988;49.000;21.242;2023-04-28T01:01:04;99097.75;;;23.29;37.25
57574;BME280;68988;49.000;21.242;2023-04-28T01:03:29;99100.41;;;23.29;37.21
57574;BME280;68988;49.000;21.242;2023-04-28T01:05:56;99097.75;;;23.29;37.11
57574;BME280;68988;49.000;21.242;2023-04-28T01:08:23;99100.41;;;23.29;37.12
57574;BME280;68988;49.000;21.242;2023-04-28T01:10:52;99093.44;;;23.28;37.23
57574;BME280;68988;49.000;21.242;2023-04-28T01:13:17;99091.03;;;23.26;37.22
57574;BME280;68988;49.000;21.242;2023-04-28T01:15:43;99089.72;;;23.29;37.11
57574;BME280;68988;49.000;21.242;2023-04-28T01:18:08;99093.19;;;23.29;36.94
57574;BME280;68988;49.000;21.242;2023-04-28T01:20:33;99094.28;;;23.28;37.15
57574;BME280;68988;49.000;21.242;2023-04-28T01:22:59;99087.28;;;23.27;36.96
57574;BME280;68988;49.000;21.242;2023-04-28T01:25:24;99098.00;;;23.27;37.23
57574;BME280;68988;49.000;21.242;2023-04-28T01:27:50;99089.97;;;23.27;37.06
57574;BME280;68988;49.000;21.242;2023-04-28T01:30:16;99089.19;;;23.27;36.99
57574;BME280;68988;49.000;21.242;2023-04-28T01:32:42;99089.97;;;23.27;37.09
57574;BME280;68988;49.000;21.242;2023-04-28T01:35:07;99089.97;;;23.27;37.04
57574;BME280;68988;49.000;21.242;2023-04-28T01:37:33;99089.97;;;23.27;37.14
57574;BME280;68988;49.000;21.242;2023-04-28T01:39:58;99086.50;;;23.27;36.76
57574;BME280;68988;49.000;21.242;2023-04-28T01:42:23;99091.03;;;23.26;37.12
57574;BME280;68988;49.000;21.242;2023-04-28T01:44:49;99083.81;;;23.27;37.15
57574;BME280;68988;49.000;21.242;2023-04-28T01:47:14;99081.94;;;23.27;37.07
57574;BME280;68988;49.000;21.242;2023-04-28T01:49:39;99079.28;;;23.27;37.13
57574;BME280;68988;49.000;21.242;2023-04-28T01:52:05;99075.78;;;23.27;37.00
57574;BME280;68988;49.000;21.242;2023-04-28T01:54:30;99085.66;;;23.26;37.06
57574;BME280;68988;49.000;21.242;2023-04-28T01:56:56;99078.72;;;23.25;37.07
57574;BME280;68988;49.000;21.242;2023-04-28T01:59:21;99077.66;;;23.26;36.95
57574;BME280;68988;49.000;21.242;2023-04-28T02:01:47;99082.44;;;23.24;37.11
57574;BME280;68988;49.000;21.242;2023-04-28T02:04:12;99080.56;;;23.24;36.98
57574;BME280;68988;49.000;21.242;2023-04-28T02:06:37;99080.81;;;23.23;36.93
57574;BME280;68988;49.000;21.242;2023-04-28T02:09:03;99083.50;;;23.23;37.08
57574;BME280;68988;49.000;21.242;2023-04-28T02:11:28;99085.13;;;23.24;36.83
57574;BME280;68988;49.000;21.242;2023-04-28T02:13:53;99093.16;;;23.24;37.07
57574;BME280;68988;49.000;21.242;2023-04-28T02:16:19;99087.81;;;23.24;36.92
57574;BME280;68988;49.000;21.242;2023-04-28T02:18:44;99095.81;;;23.24;36.91
57574;BME280;68988;49.000;21.242;2023-04-28T02:21:11;99092.34;;;23.23;37.08
57574;BME280;68988;49.000;21.242;2023-04-28T02:23:37;99103.84;;;23.24;36.89
57574;BME280;68988;49.000;21.242;2023-04-28T02:26:02;99094.19;;;23.23;36.97
57574;BME280;68988;49.000;21.242;2023-04-28T02:28:28;99090.47;;;23.24;36.95
57574;BME280;68988;49.000;21.242;2023-04-28T02:31:07;99095.06;;;23.29;36.95
57574;BME280;68988;49.000;21.242;2023-04-28T02:33:34;99096.88;;;23.23;37.11
57574;BME280;68988;49.000;21.242;2023-04-28T02:36:00;99097.97;;;23.22;37.10
57574;BME280;68988;49.000;21.242;2023-04-28T02:38:26;99100.63;;;23.22;36.92
57574;BME280;68988;49.000;21.242;2023-04-28T02:43:24;99110.25;;;23.23;36.95
57574;BME280;68988;49.000;21.242;2023-04-28T02:45:50;99107.03;;;23.21;36.95
57574;BME280;68988;49.000;21.242;2023-04-28T02:48:16;99120.41;;;23.21;37.03
57574;BME280;68988;49.000;21.242;2023-04-28T02:50:41;99117.47;;;23.22;37.03
57574;BME280;68988;49.000;21.242;2023-04-28T02:53:06;99109.69;;;23.21;37.10
57574;BME280;68988;49.000;21.242;2023-04-28T02:55:32;99122.03;;;23.22;37.03
57574;BME280;68988;49.000;21.242;2023-04-28T02:57:57;99112.38;;;23.21;37.02
57574;BME280;68988;49.000;21.242;2023-04-28T03:00:23;99120.41;;;23.21;36.77
57574;BME280;68988;49.000;21.242;2023-04-28T03:02:48;99113.13;;;23.16;37.21
57574;BME280;68988;49.000;21.242;2023-04-28T03:05:13;99123.63;;;23.23;36.82
57574;BME280;68988;49.000;21.242;2023-04-28T03:07:39;99123.09;;;23.21;36.93
57574;BME280;68988;49.000;21.242;2023-04-28T03:10:05;99123.34;;;23.19;36.92
57574;BME280;68988;49.000;21.242;2023-04-28T03:12:30;99125.22;;;23.19;37.00
57574;BME280;68988;49.000;21.242;2023-04-28T03:14:55;99136.47;;;23.21;36.82
57574;BME280;68988;49.000;21.242;2023-04-28T03:17:21;99141.00;;;23.20;36.96
57574;BME280;68988;49.000;21.242;2023-04-28T03:19:46;99143.09;;;23.18;36.88
57574;BME280;68988;49.000;21.242;2023-04-28T03:22:12;99143.94;;;23.19;36.96
57574;BME280;68988;49.000;21.242;2023-04-28T03:24:37;99152.50;;;23.21;36.73
57574;BME280;68988;49.000;21.242;2023-04-28T03:27:02;99150.88;;;23.20;36.87
57574;BME280;68988;49.000;21.242;2023-04-28T03:29:28;99149.53;;;23.17;36.98
57574;BME280;68988;49.000;21.242;2023-04-28T03:31:53;99150.88;;;23.20;36.92
57574;BME280;68988;49.000;21.242;2023-04-28T03:34:19;99159.16;;;23.18;36.75
57574;BME280;68988;49.000;21.242;2023-04-28T03:36:44;99158.91;;;23.20;36.73
57574;BME280;68988;49.000;21.242;2023-04-28T03:39:10;99161.59;;;23.20;36.85
57574;BME280;68988;49.000;21.242;2023-04-28T03:41:35;99157.31;;;23.19;36.82
57574;BME280;68988;49.000;21.242;2023-04-28T03:44:01;99156.25;;;23.20;36.85
57574;BME280;68988;49.000;21.242;2023-04-28T03:46:26;99154.63;;;23.19;36.88
57574;BME280;68988;49.000;21.242;2023-04-28T03:48:51;99153.56;;;23.20;36.75
57574;BME280;68988;49.000;21.242;2023-04-28T03:51:17;99163.22;;;23.21;36.72
57574;BME280;68988;49.000;21.242;2023-04-28T03:53:43;99161.09;;;23.23;36.78
57574;BME280;68988;49.000;21.242;2023-04-28T03:56:08;99161.66;;;23.25;36.87
57574;BME280;68988;49.000;21.242;2023-04-28T03:58:34;99155.25;;;23.26;36.80
57574;BME280;68988;49.000;21.242;2023-04-28T04:00:59;99160.03;;;23.24;36.66
57574;BME280;68988;49.000;21.242;2023-04-28T04:03:25;99156.56;;;23.23;36.69
57574;BME280;68988;49.000;21.242;2023-04-28T04:05:51;99149.59;;;23.22;36.79
57574;BME280;68988;49.000;21.242;2023-04-28T04:08:17;99162.16;;;23.22;36.71
57574;BME280;68988;49.000;21.242;2023-04-28T04:10:43;99158.66;;;23.21;36.71
57574;BME280;68988;49.000;21.242;2023-04-28T04:13:09;99166.44;;;23.23;36.76
57574;BME280;68988;49.000;21.242;2023-04-28T04:15:34;99162.72;;;23.24;36.73
57574;BME280;68988;49.000;21.242;2023-04-28T04:18:00;99160.03;;;23.24;36.75
57574;BME280;68988;49.000;21.242;2023-04-28T04:20:25;99160.28;;;23.22;36.79
57574;BME280;68988;49.000;21.242;2023-04-28T04:22:51;99171.00;;;23.22;36.91
57574;BME280;68988;49.000;21.242;2023-04-28T04:25:17;99164.34;;;23.25;36.77
57574;BME280;68988;49.000;21.242;2023-04-28T04:27:43;99164.34;;;23.25;36.78
57574;BME280;68988;49.000;21.242;2023-04-28T04:30:09;99165.44;;;23.29;36.76
57574;BME280;68988;49.000;21.242;2023-04-28T04:32:34;99160.41;;;23.33;36.63
57574;BME280;68988;49.000;21.242;2023-04-28T04:35:00;99158.78;;;23.32;36.88
57574;BME280;68988;49.000;21.242;2023-04-28T04:37:25;99168.69;;;23.31;36.70
57574;BME280;68988;49.000;21.242;2023-04-28T04:39:51;99168.00;;;23.41;36.63
57574;BME280;68988;49.000;21.242;2023-04-28T04:42:16;99170.03;;;23.56;36.42
57574;BME280;68988;49.000;21.242;2023-04-28T04:44:42;99169.66;;;23.47;36.41
57574;BME280;68988;49.000;21.242;2023-04-28T04:47:07;99167.75;;;23.42;36.67
57574;BME280;68988;49.000;21.242;2023-04-28T04:49:33;99167.19;;;23.40;36.62
57574;BME280;68988;49.000;21.242;2023-04-28T04:51:58;99168.78;;;23.41;36.81
57574;BME280;68988;49.000;21.242;2023-04-28T04:54:23;99168.28;;;23.45;36.58
57574;BME280;68988;49.000;21.242;2023-04-28T04:56:49;99163.19;;;23.43;36.80
57574;BME280;68988;49.000;21.242;2023-04-28T04:59:15;99172.09;;;23.49;36.68
57574;BME280;68988;49.000;21.242;2023-04-28T05:01:40;99171.34;;;23.53;36.77
57574;BME280;68988;49.000;21.242;2023-04-28T05:04:06;99166.28;;;23.57;36.83
57574;BME280;68988;49.000;21.242;2023-04-28T05:06:31;99160.69;;;23.58;36.85
57574;BME280;68988;49.000;21.242;2023-04-28T05:08:57;99163.09;;;23.60;36.28
57574;BME280;68988;49.000;21.242;2023-04-28T05:11:23;99172.75;;;23.61;36.60
57574;BME280;68988;49.000;21.242;2023-04-28T05:13:49;99162.06;;;23.61;36.81
57574;BME280;68988;49.000;21.242;2023-04-28T05:16:14;99160.19;;;23.62;36.85
57574;BME280;68988;49.000;21.242;2023-04-28T05:18:40;99151.09;;;23.63;36.99
57574;BME280;68988;49.000;21.242;2023-04-28T05:21:05;99158.91;;;23.69;37.02
57574;BME280;68988;49.000;21.242;2023-04-28T05:23:31;99155.22;;;23.75;36.92
57574;BME280;68988;49.000;21.242;2023-04-28T05:25:56;99162.25;;;23.82;37.03
57574;BME280;68988;49.000;21.242;2023-04-28T05:28:22;99167.97;;;23.85;37.10
57574;BME280;68988;49.000;21.242;2023-04-28T05:30:47;99154.59;;;23.90;36.98
57574;BME280;68988;49.000;21.242;2023-04-28T05:33:12;99161.00;;;23.89;37.16
57574;BME280;68988;49.000;21.242;2023-04-28T05:35:38;99149.50;;;23.89;37.06
57574;BME280;68988;49.000;21.242;2023-04-28T05:38:03;99165.56;;;23.89;37.26
57574;BME280;68988;49.000;21.242;2023-04-28T05:40:29;99163.41;;;23.86;37.27
57574;BME280;68988;49.000;21.242;2023-04-28T05:42:54;99159.91;;;23.85;37.16
57574;BME280;68988;49.000;21.242;2023-04-28T05:45:20;99158.84;;;23.86;37.29
57574;BME280;68988;49.000;21.242;2023-04-28T05:47:46;99166.13;;;23.91;37.24
57574;BME280;68988;49.000;21.242;2023-04-28T05:50:11;99170.97;;;23.94;37.33
57574;BME280;68988;49.000;21.242;2023-04-28T05:52:37;99154.84;;;23.89;37.17
57574;BME280;68988;49.000;21.242;2023-04-28T05:55:02;99169.38;;;23.93;37.24
57574;BME280;68988;49.000;21.242;2023-04-28T05:57:28;99165.84;;;23.92;37.26
57574;BME280;68988;49.000;21.242;2023-04-28T05:59:53;99168.84;;;23.96;37.39
57574;BME280;68988;49.000;21.242;2023-04-28T06:02:19;99173.13;;;23.97;37.15
57574;BME280;68988;49.000;21.242;2023-04-28T06:04:44;99184.16;;;24.01;37.05
57574;BME280;68988;49.000;21.242;2023-04-28T06:07:09;99170.78;;;24.01;36.92
57574;BME280;68988;49.000;21.242;2023-04-28T06:09:35;99173.19;;;24.02;36.87
57574;BME280;68988;49.000;21.242;2023-04-28T06:12:01;99172.69;;;24.05;36.82
57574;BME280;68988;49.000;21.242;2023-04-28T06:14:27;99173.50;;;24.06;36.80
57574;BME280;68988;49.000;21.242;2023-04-28T06:16:53;99172.19;;;24.08;36.60
57574;BME280;68988;49.000;21.242;2023-04-28T06:19:18;99168.41;;;24.09;36.41
57574;BME280;68988;49.000;21.242;2023-04-28T06:21:44;99167.06;;;24.07;36.47
57574;BME280;68988;49.000;21.242;2023-04-28T06:24:10;99167.91;;;24.12;36.32
57574;BME280;68988;49.000;21.242;2023-04-28T06:26:36;99167.41;;;24.16;36.24
57574;BME280;68988;49.000;21.242;2023-04-28T06:29:02;99171.19;;;24.20;36.45
57574;BME280;68988;49.000;21.242;2023-04-28T06:31:27;99165.56;;;24.21;36.39
57574;BME280;68988;49.000;21.242;2023-04-28T06:33:53;99161.59;;;24.24;36.60
57574;BME280;68988;49.000;21.242;2023-04-28T06:36:19;99160.50;;;24.25;36.69
57574;BME280;68988;49.000;21.242;2023-04-28T06:38:44;99162.66;;;24.23;36.79
57574;BME280;68988;49.000;21.242;2023-04-28T06:41:10;99172.31;;;24.24;36.92
57574;BME280;68988;49.000;21.242;2023-04-28T06:43:36;99164.00;;;24.25;36.78
57574;BME280;68988;49.000;21.242;2023-04-28T06:46:02;99164.00;;;24.25;36.78
57574;BME280;68988;49.000;21.242;2023-04-28T06:48:27;99168.03;;;24.28;36.90
57574;BME280;68988;49.000;21.242;2023-04-28T06:50:53;99162.94;;;24.26;36.85
57574;BME280;68988;49.000;21.242;2023-04-28T06:53:18;99160.56;;;24.30;36.89
57574;BME280;68988;49.000;21.242;2023-04-28T06:55:44;99160.56;;;24.30;36.87
57574;BME280;68988;49.000;21.242;2023-04-28T06:58:09;99154.13;;;24.31;36.87
57574;BME280;68988;49.000;21.242;2023-04-28T07:00:35;99157.38;;;24.33;36.90
57574;BME280;68988;49.000;21.242;2023-04-28T07:03:01;99156.03;;;24.36;36.77
57574;BME280;68988;49.000;21.242;2023-04-28T07:05:26;99148.00;;;24.36;36.98
57574;BME280;68988;49.000;21.242;2023-04-28T07:07:53;99152.28;;;24.37;37.03
57574;BME280;68988;49.000;21.242;2023-04-28T07:10:18;99149.34;;;24.38;37.03
57574;BME280;68988;49.000;21.242;2023-04-28T07:12:44;99145.63;;;24.39;37.29
57574;BME280;68988;49.000;21.242;2023-04-28T07:15:10;99154.72;;;24.38;37.15
57574;BME280;68988;49.000;21.242;2023-04-28T07:17:36;99152.56;;;24.40;37.29
57574;BME280;68988;49.000;21.242;2023-04-28T07:20:01;99150.97;;;24.39;37.33
57574;BME280;68988;49.000;21.242;2023-04-28T07:22:27;99143.47;;;24.41;37.17
57574;BME280;68988;49.000;21.242;2023-04-28T07:24:52;99138.38;;;24.40;37.26
57574;BME280;68988;49.000;21.242;2023-04-28T07:27:18;99142.44;;;24.42;37.33
57574;BME280;68988;49.000;21.242;2023-04-28T07:29:43;99148.03;;;24.41;37.29
57574;BME280;68988;49.000;21.242;2023-04-28T07:32:09;99140.00;;;24.41;37.45
57574;BME280;68988;49.000;21.242;2023-04-28T07:34:35;99138.13;;;24.41;37.46
57574;BME280;68988;49.000;21.242;2023-04-28T07:37:02;99135.19;;;24.43;37.47
57574;BME280;68988;49.000;21.242;2023-04-28T07:39:27;99131.69;;;24.42;37.57
57574;BME280;68988;49.000;21.242;2023-04-28T07:41:53;99127.94;;;24.43;37.38
57574;BME280;68988;49.000;21.242;2023-04-28T07:44:18;99118.31;;;24.42;37.22
57574;BME280;68988;49.000;21.242;2023-04-28T07:46:44;99122.03;;;24.41;37.39
57574;BME280;68988;49.000;21.242;2023-04-28T07:49:10;99123.66;;;24.42;37.44
57574;BME280;68988;49.000;21.242;2023-04-28T07:51:35;99118.84;;;24.44;37.39
57574;BME280;68988;49.000;21.242;2023-04-28T07:54:01;99116.16;;;24.44;37.42
57574;BME280;68988;49.000;21.242;2023-04-28T07:56:26;99112.69;;;24.44;37.45
57574;BME280;68988;49.000;21.242;2023-04-28T07:58:52;99107.06;;;24.45;37.25
57574;BME280;68988;49.000;21.242;2023-04-28T08:01:17;99105.94;;;24.41;37.44
57574;BME280;68988;49.000;21.242;2023-04-28T08:03:43;99096.84;;;24.42;37.69
57574;BME280;68988;49.000;21.242;2023-04-28T08:06:09;99102.22;;;24.42;37.67
57574;BME280;68988;49.000;21.242;2023-04-28T08:08:34;99093.59;;;24.40;37.41
57574;BME280;68988;49.000;21.242;2023-04-28T08:11:00;99094.94;;;24.38;37.46
57574;BME280;68988;49.000;21.242;2023-04-28T08:13:26;99091.19;;;24.39;37.72
57574;BME280;68988;49.000;21.242;2023-04-28T08:15:52;99086.66;;;24.39;37.20
57574;BME280;68988;49.000;21.242;2023-04-28T08:18:20;99081.03;;;24.41;37.51
57574;BME280;68988;49.000;21.242;2023-04-28T08:20:45;99074.31;;;24.38;37.55
57574;BME280;68988;49.000;21.242;2023-04-28T08:23:11;99084.50;;;24.41;37.52
57574;BME280;68988;49.000;21.242;2023-04-28T08:25:36;99074.31;;;24.38;37.73
57574;BME280;68988;49.000;21.242;2023-04-28T08:28:02;99077.53;;;24.40;37.67
57574;BME280;68988;49.000;21.242;2023-04-28T08:30:28;99068.94;;;24.38;38.00
57574;BME280;68988;49.000;21.242;2023-04-28T08:32:54;99070.00;;;24.37;37.87
57574;BME280;68988;49.000;21.242;2023-04-28T08:35:19;99075.94;;;24.39;37.75
57574;BME280;68988;49.000;21.242;2023-04-28T08:37:45;99072.69;;;24.37;37.92
57574;BME280;68988;49.000;21.242;2023-04-28T08:40:13;99072.69;;;24.37;38.05
57574;BME280;68988;49.000;21.242;2023-04-28T08:42:39;99072.69;;;24.37;38.01
57574;BME280;68988;49.000;21.242;2023-04-28T08:45:06;99060.38;;;24.36;38.01
57574;BME280;68988;49.000;21.242;2023-04-28T08:47:36;99051.25;;;24.37;37.84
57574;BME280;68988;49.000;21.242;2023-04-28T08:50:10;99060.38;;;24.36;37.73
57574;BME280;68988;49.000;21.242;2023-04-28T08:52:37;99059.78;;;24.34;37.85
57574;BME280;68988;49.000;21.242;2023-04-28T08:55:08;99055.81;;;24.37;37.61
57574;BME280;68988;49.000;21.242;2023-04-28T08:57:43;99055.81;;;24.37;37.44
57574;BME280;68988;49.000;21.242;2023-04-28T09:00:10;99053.38;;;24.35;38.06
57574;BME280;68988;49.000;21.242;2023-04-28T09:02:36;99049.38;;;24.38;37.92
57574;BME280;68988;49.000;21.242;2023-04-28T09:05:12;99049.41;;;24.43;37.63
57574;BME280;68988;49.000;21.242;2023-04-28T09:07:38;99048.81;;;24.36;37.60
57574;BME280;68988;49.000;21.242;2023-04-28T09:10:23;99049.66;;;24.41;37.31
57574;BME280;68988;49.000;21.242;2023-04-28T09:12:53;99043.19;;;24.37;37.46
57574;BME280;68988;49.000;21.242;2023-04-28T09:17:51;99043.97;;;24.33;37.37
57574;BME280;68988;49.000;21.242;2023-04-28T09:20:24;99038.91;;;24.36;37.00
57574;BME280;68988;49.000;21.242;2023-04-28T09:22:51;99034.63;;;24.35;37.44
57574;BME280;68988;49.000;21.242;2023-04-28T09:25:18;99015.84;;;24.35;37.89
57574;BME280;68988;49.000;21.242;2023-04-28T09:27:43;99029.00;;;24.37;37.43
57574;BME280;68988;49.000;21.242;2023-04-28T09:30:09;99024.44;;;24.37;37.55
57574;BME280;68988;49.000;21.242;2023-04-28T09:32:34;99019.63;;;24.39;37.81
57574;BME280;68988;49.000;21.242;2023-04-28T09:35:01;99019.63;;;24.39;37.81
57574;BME280;68988;49.000;21.242;2023-04-28T09:37:29;99018.56;;;24.40;37.70
57574;BME280;68988;49.000;21.242;2023-04-28T09:39:56;99018.28;;;24.42;37.58
57574;BME280;68988;49.000;21.242;2023-04-28T09:42:39;99019.66;;;24.49;37.54
57574;BME280;68988;49.000;21.242;2023-04-28T09:45:10;99015.91;;;24.45;37.65
57574;BME280;68988;49.000;21.242;2023-04-28T09:47:41;99014.81;;;24.41;37.55
57574;BME280;68988;49.000;21.242;2023-04-28T09:50:11;99020.72;;;24.43;37.41
57574;BME280;68988;49.000;21.242;2023-04-28T09:52:40;99016.44;;;24.42;37.78
57574;BME280;68988;49.000;21.242;2023-04-28T09:55:06;99013.75;;;24.42;37.56
57574;BME280;68988;49.000;21.242;2023-04-28T09:57:35;99012.66;;;24.43;37.58
57574;BME280;68988;49.000;21.242;2023-04-28T10:00:02;99000.34;;;24.42;37.65
57574;BME280;68988;49.000;21.242;2023-04-28T10:02:32;99005.72;;;24.42;37.56
57574;BME280;68988;49.000;21.242;2023-04-28T10:04:58;98989.63;;;24.42;37.65
57574;BME280;68988;49.000;21.242;2023-04-28T10:07:23;98995.00;;;24.42;37.88
57574;BME280;68988;49.000;21.242;2023-04-28T10:09:50;98997.09;;;24.40;37.73
57574;BME280;68988;49.000;21.242;2023-04-28T10:12:17;98990.44;;;24.43;37.88
57574;BME280;68988;49.000;21.242;2023-04-28T10:14:43;98994.16;;;24.42;38.14
57574;BME280;68988;49.000;21.242;2023-04-28T10:17:12;98978.38;;;24.45;38.01
57574;BME280;68988;49.000;21.242;2023-04-28T10:19:40;98981.06;;;24.45;37.93
57574;BME280;68988;49.000;21.242;2023-04-28T10:24:58;98974.09;;;24.49;37.76
57574;BME280;68988;49.000;21.242;2023-04-28T10:27:31;98973.81;;;24.46;37.99
57574;BME280;68988;49.000;21.242;2023-04-28T10:32:36;98957.22;;;24.44;37.65
57574;BME280;68988;49.000;21.242;2023-04-28T10:40:42;98956.41;;;24.48;38.05
57574;BME280;68988;49.000;21.242;2023-04-28T10:56:24;98935.50;;;24.45;37.62
57574;BME280;68988;49.000;21.242;2023-04-28T10:58:54;98930.13;;;24.45;38.01
57574;BME280;68988;49.000;21.242;2023-04-28T11:06:24;98909.75;;;24.49;37.62
57574;BME280;68988;49.000;21.242;2023-04-28T11:08:51;98917.28;;;24.47;37.33
57574;BME280;68988;49.000;21.242;2023-04-28T11:11:18;98901.72;;;24.44;37.69
57574;BME280;68988;49.000;21.242;2023-04-28T11:13:45;98908.69;;;24.45;37.64
57574;BME280;68988;49.000;21.242;2023-04-28T11:16:19;98897.97;;;24.45;37.37
57574;BME280;68988;49.000;21.242;2023-04-28T11:18:50;98892.09;;;24.48;37.26
57574;BME280;68988;49.000;21.242;2023-04-28T11:21:17;98893.41;;;24.46;37.26
57574;BME280;68988;49.000;21.242;2023-04-28T11:23:43;98887.25;;;24.45;37.51
57574;BME280;68988;49.000;21.242;2023-04-28T11:26:09;98892.63;;;24.45;37.21
57574;BME280;68988;49.000;21.242;2023-04-28T11:28:34;98891.78;;;24.45;37.15
57574;BME280;68988;49.000;21.242;2023-04-28T11:31:14;98889.94;;;24.51;36.57
57574;BME280;68988;49.000;21.242;2023-04-28T11:36:36;98875.44;;;24.46;36.81
57574;BME280;68988;49.000;21.242;2023-04-28T11:39:03;98882.94;;;24.44;37.13
57574;BME280;68988;49.000;21.242;2023-04-28T11:41:30;98884.00;;;24.43;36.93
57574;BME280;68988;49.000;21.242;2023-04-28T11:43:56;98879.75;;;24.47;36.90
57574;BME280;68988;49.000;21.242;2023-04-28T11:46:23;98873.84;;;24.45;36.63
57574;BME280;68988;49.000;21.242;2023-04-28T11:48:59;98877.59;;;24.49;37.04
57574;BME280;68988;49.000;21.242;2023-04-28T11:51:38;98876.00;;;24.48;37.01
57574;BME280;68988;49.000;21.242;2023-04-28T11:54:05;98874.91;;;24.44;37.04
57574;BME280;68988;49.000;21.242;2023-04-28T11:56:40;98867.41;;;24.46;36.88
57574;BME280;68988;49.000;21.242;2023-04-28T11:59:10;98878.94;;;24.47;36.86
57574;BME280;68988;49.000;21.242;2023-04-28T12:04:35;98872.50;;;24.48;36.63
57574;BME280;68988;49.000;21.242;2023-04-28T12:07:08;98870.59;;;24.43;36.57
57574;BME280;68988;49.000;21.242;2023-04-28T12:09:39;98863.63;;;24.37;36.49
57574;BME280;68988;49.000;21.242;2023-04-28T12:12:06;98865.25;;;24.38;36.75
57574;BME280;68988;49.000;21.242;2023-04-28T12:14:56;98851.84;;;24.43;36.39
57574;BME280;68988;49.000;21.242;2023-04-28T12:17:28;98854.00;;;24.36;36.72
57574;BME280;68988;49.000;21.242;2023-04-28T12:19:54;98859.38;;;24.52;36.13
57574;BME280;68988;49.000;21.242;2023-04-28T12:22:20;98851.00;;;24.33;36.28
57574;BME280;68988;49.000;21.242;2023-04-28T12:24:45;98841.91;;;24.28;36.23
57574;BME280;68988;49.000;21.242;2023-04-28T12:27:18;98843.53;;;24.35;36.14
57574;BME280;68988;49.000;21.242;2023-04-28T12:29:49;98848.06;;;24.29;36.07
57574;BME280;68988;49.000;21.242;2023-04-28T12:32:15;98836.56;;;24.28;36.45
57574;BME280;68988;49.000;21.242;2023-04-28T12:34:43;98834.66;;;24.29;36.18
57574;BME280;68988;49.000;21.242;2023-04-28T12:37:08;98837.34;;;24.29;36.00
57574;BME280;68988;49.000;21.242;2023-04-28T12:39:35;98828.50;;;24.28;35.55
57574;BME280;68988;49.000;21.242;2023-04-28T12:42:02;98822.31;;;24.28;35.56
57574;BME280;68988;49.000;21.242;2023-04-28T12:44:36;98821.28;;;24.34;35.44
57574;BME280;68988;49.000;21.242;2023-04-28T12:47:07;98808.66;;;24.29;35.44
57574;BME280;68988;49.000;21.242;2023-04-28T12:49:35;98812.69;;;24.27;35.50
57574;BME280;68988;49.000;21.242;2023-04-28T12:52:00;98808.41;;;24.26;35.18
57574;BME280;68988;49.000;21.242;2023-04-28T12:54:26;98801.41;;;24.25;34.95
57574;BME280;68988;49.000;21.242;2023-04-28T12:56:52;98806.78;;;24.25;35.30
57574;BME280;68988;49.000;21.242;2023-04-28T12:59:19;98798.75;;;24.20;35.42
57574;BME280;68988;49.000;21.242;2023-04-28T13:01:45;98789.63;;;24.21;35.25
57574;BME280;68988;49.000;21.242;2023-04-28T13:04:10;98782.13;;;24.23;35.30
57574;BME280;68988;49.000;21.242;2023-04-28T13:06:36;98772.22;;;24.18;34.91
57574;BME280;68988;49.000;21.242;2023-04-28T13:09:02;98778.66;;;24.22;35.05
57574;BME280;68988;49.000;21.242;2023-04-28T13:11:28;98784.28;;;24.21;35.00
57574;BME280;68988;49.000;21.242;2023-04-28T13:13:53;98772.47;;;24.22;35.07
57574;BME280;68988;49.000;21.242;2023-04-28T13:16:19;98773.56;;;24.21;35.04
57574;BME280;68988;49.000;21.242;2023-04-28T13:18:45;98777.31;;;24.20;35.16
57574;BME280;68988;49.000;21.242;2023-04-28T13:21:10;98770.31;;;24.19;35.40
57574;BME280;68988;49.000;21.242;2023-04-28T13:23:38;98764.69;;;24.20;35.14
57574;BME280;68988;49.000;21.242;2023-04-28T13:26:04;98769.53;;;24.18;34.97